Time,TemperatureF,DewpointF,PressureIn,WindDirection,WindDirectionDegrees,WindSpeedMPH,WindSpeedGustMPH,Humidity,HourlyPrecipIn,Conditions,Clouds,dailyrainin,SoftwareType,DateUTC
2013-05-12 00:03:00,37.9,16.4,29.88,NW,317,9.6,10.5,41,0.00,,-RA,0.00,VWS V14.01,2013-05-12 05:03:00,
2013-05-12 00:08:00,37.9,16.4,29.88,NW,310,8.1,12.8,41,0.00,,-RA,0.00,VWS V14.01,2013-05-12 05:08:00,
2013-05-12 00:14:00,37.9,16.4,29.88,NW,326,4.9,10.1,41,0.00,,-RA,0.00,VWS V14.01,2013-05-12 05:14:00,
2013-05-12 00:20:00,37.6,16.0,29.88,WNW,302,8.3,13.2,41,0.00,,-RA,0.00,VWS V14.01,2013-05-12 05:20:00,
2013-05-12 00:25:00,37.4,15.9,29.88,WNW,290,7.2,7.2,41,0.00,,-RA,0.00,VWS V14.01,2013-05-12 05:25:00,
2013-05-12 00:30:00,37.4,15.9,29.88,NW,319,8.1,13.2,41,0.00,,-RA,0.00,VWS V14.01,2013-05-12 05:30:00,
2013-05-12 00:36:00,37.4,15.9,29.88,NW,308,7.6,8.3,41,0.00,,-RA,0.00,VWS V14.01,2013-05-12 05:36:00,
2013-05-12 00:41:00,37.4,15.9,29.88,NW,312,5.8,9.6,41,0.00,,-RA,0.00,VWS V14.01,2013-05-12 05:41:00,
2013-05-12 00:46:00,37.4,15.3,29.88,NNW,327,5.8,8.1,40,0.00,,-RA,0.00,VWS V14.01,2013-05-12 05:46:00,
2013-05-12 00:51:00,37.4,15.3,29.88,North,357,8.3,11.0,40,0.00,,-RA,0.00,VWS V14.01,2013-05-12 05:51:00,
2013-05-12 00:56:00,37.4,15.3,29.88,NW,312,7.6,8.3,40,0.00,,-RA,0.00,VWS V14.01,2013-05-12 05:56:00,
2013-05-12 01:01:00,37.2,15.1,29.88,NW,324,5.8,10.1,40,0.00,,OVC070,0.00,VWS V14.01,2013-05-12 06:01:00,
2013-05-12 01:06:00,37.2,15.1,29.88,NNW,335,7.6,8.7,40,0.00,,OVC070,0.00,VWS V14.01,2013-05-12 06:06:00,
2013-05-12 01:11:00,37.2,15.1,29.88,NW,313,11.0,11.0,40,0.00,,OVC070,0.00,VWS V14.01,2013-05-12 06:11:00,
2013-05-12 01:17:00,37.0,15.0,29.88,NW,318,8.3,8.7,40,0.00,,OVC070,0.00,VWS V14.01,2013-05-12 06:17:00,
2013-05-12 01:22:00,37.0,15.0,29.88,NNW,327,5.4,11.0,40,0.00,,OVC070,0.00,VWS V14.01,2013-05-12 06:22:00,
2013-05-12 01:27:00,36.9,14.8,29.88,NW,315,8.3,8.7,40,0.00,,OVC070,0.00,VWS V14.01,2013-05-12 06:27:00,
2013-05-12 01:32:00,36.9,14.8,29.88,NW,319,8.1,10.5,40,0.00,,OVC070,0.00,VWS V14.01,2013-05-12 06:32:00,
2013-05-12 01:37:00,36.9,14.8,29.88,NW,313,7.6,10.1,40,0.00,,OVC070,0.00,VWS V14.01,2013-05-12 06:37:00,
2013-05-12 01:43:00,36.7,14.6,29.88,NW,314,7.6,10.1,40,0.00,,OVC070,0.00,VWS V14.01,2013-05-12 06:43:00,
2013-05-12 01:49:00,36.7,14.6,29.88,NW,322,5.4,10.1,40,0.00,,OVC070,0.00,VWS V14.01,2013-05-12 06:49:00,
2013-05-12 01:54:00,36.7,14.6,29.88,NW,312,8.1,10.5,40,0.00,,OVC070,0.00,VWS V14.01,2013-05-12 06:54:00,
2013-05-12 02:00:00,36.7,14.6,29.88,NNW,340,8.1,11.0,40,0.00,,OVC070,0.00,VWS V14.01,2013-05-12 07:00:00,
2013-05-12 02:05:00,36.7,14.1,29.88,NW,311,8.3,10.1,39,0.00,,FEW075,0.00,VWS V14.01,2013-05-12 07:05:00,
2013-05-12 02:11:00,36.3,13.8,29.88,NW,308,11.0,11.0,39,0.00,,FEW075,0.00,VWS V14.01,2013-05-12 07:11:00,
2013-05-12 02:17:00,36.3,12.6,29.88,NNW,333,10.1,17.0,37,0.00,,FEW075,0.00,VWS V14.01,2013-05-12 07:17:00,
2013-05-12 02:22:00,36.3,12.6,29.88,NW,326,8.3,12.3,37,0.00,,FEW075,0.00,VWS V14.01,2013-05-12 07:22:00,
2013-05-12 02:28:00,36.3,12.6,29.88,NNW,331,8.7,10.1,37,0.00,,FEW075,0.00,VWS V14.01,2013-05-12 07:28:00,
2013-05-12 02:33:00,36.1,12.4,29.88,NNW,339,8.1,10.1,37,0.00,,FEW075,0.00,VWS V14.01,2013-05-12 07:33:00,
2013-05-12 02:38:00,36.1,11.8,29.88,NNW,335,13.2,13.2,36,0.00,,FEW075,0.00,VWS V14.01,2013-05-12 07:38:00,
2013-05-12 02:43:00,36.1,11.8,29.88,NW,311,14.1,14.1,36,0.00,,FEW075,0.00,VWS V14.01,2013-05-12 07:43:00,
2013-05-12 02:48:00,36.1,11.8,29.88,NW,321,13.2,14.5,36,0.00,,FEW075,0.00,VWS V14.01,2013-05-12 07:48:00,
2013-05-12 02:54:00,35.8,11.4,29.88,NW,325,10.1,10.1,36,0.00,,FEW075,0.00,VWS V14.01,2013-05-12 07:54:00,
2013-05-12 03:00:00,35.8,11.4,29.88,North,6,6.3,8.7,36,0.00,,FEW075,0.00,VWS V14.01,2013-05-12 08:00:00,
2013-05-12 03:05:00,35.8,11.4,29.88,NNW,336,8.7,10.5,36,0.00,,OVC050,0.00,VWS V14.01,2013-05-12 08:05:00,
2013-05-12 03:10:00,35.8,12.1,29.88,WNW,302,3.6,8.3,37,0.00,,OVC050,0.00,VWS V14.01,2013-05-12 08:10:00,
2013-05-12 03:16:00,35.8,12.1,29.88,NW,317,8.3,8.3,37,0.00,,OVC050,0.00,VWS V14.01,2013-05-12 08:16:00,
2013-05-12 03:21:00,35.8,12.1,29.88,NW,311,7.6,11.0,37,0.00,,OVC050,0.00,VWS V14.01,2013-05-12 08:21:00,
2013-05-12 03:26:00,35.8,12.1,29.88,NW,326,10.5,13.2,37,0.00,,OVC050,0.00,VWS V14.01,2013-05-12 08:26:00,
2013-05-12 03:31:00,35.8,12.1,29.88,WNW,301,6.3,12.3,37,0.00,,OVC050,0.00,VWS V14.01,2013-05-12 08:31:00,
2013-05-12 03:36:00,35.6,11.3,29.88,WNW,300,9.6,9.6,36,0.00,,OVC050,0.00,VWS V14.01,2013-05-12 08:36:00,
2013-05-12 03:42:00,35.6,10.7,29.88,NNW,329,8.3,11.4,35,0.00,,OVC050,0.00,VWS V14.01,2013-05-12 08:42:00,
2013-05-12 03:47:00,35.6,10.7,29.91,NNW,341,8.1,13.2,35,0.00,,OVC050,0.00,VWS V14.01,2013-05-12 08:47:00,
2013-05-12 03:53:00,35.4,10.5,29.91,NW,324,10.5,10.5,35,0.00,,OVC050,0.00,VWS V14.01,2013-05-12 08:53:00,
2013-05-12 03:59:00,35.4,11.1,29.91,NW,326,5.4,8.3,36,0.00,,OVC050,0.00,VWS V14.01,2013-05-12 08:59:00,
2013-05-12 04:04:00,35.1,10.8,29.91,NW,309,6.3,6.3,36,0.00,,OVC046,0.00,VWS V14.01,2013-05-12 09:04:00,
2013-05-12 04:09:00,35.1,11.4,29.91,NW,320,6.3,8.7,37,0.00,,OVC046,0.00,VWS V14.01,2013-05-12 09:09:00,
2013-05-12 04:14:00,34.9,11.3,29.91,NW,311,9.6,9.6,37,0.00,,OVC046,0.00,VWS V14.01,2013-05-12 09:14:00,
2013-05-12 04:19:00,34.7,11.7,29.91,North,2,12.3,12.3,38,0.00,,OVC046,0.00,VWS V14.01,2013-05-12 09:19:00,
2013-05-12 04:24:00,34.5,11.5,29.91,NNW,333,8.1,8.3,38,0.00,,OVC046,0.00,VWS V14.01,2013-05-12 09:24:00,
2013-05-12 04:30:00,34.3,12.0,29.91,NNW,335,8.3,10.1,39,0.00,,OVC046,0.00,VWS V14.01,2013-05-12 09:30:00,
2013-05-12 04:35:00,34.3,12.0,29.91,NW,324,8.3,10.1,39,0.00,,OVC046,0.00,VWS V14.01,2013-05-12 09:35:00,
2013-05-12 04:40:00,34.3,11.4,29.91,NNW,343,12.3,12.8,38,0.00,,OVC046,0.00,VWS V14.01,2013-05-12 09:40:00,
2013-05-12 04:45:00,34.3,10.8,29.88,North,349,12.8,12.8,37,0.00,,OVC046,0.00,VWS V14.01,2013-05-12 09:45:00,
2013-05-12 04:51:00,34.5,10.3,29.88,NW,326,8.1,11.4,36,0.00,,OVC046,0.00,VWS V14.01,2013-05-12 09:51:00,
2013-05-12 04:56:00,34.5,10.9,29.88,NNW,341,10.5,10.5,37,0.00,,OVC046,0.00,VWS V14.01,2013-05-12 09:56:00,
2013-05-12 05:02:00,34.3,10.8,29.91,NW,316,8.1,11.4,37,0.00,,BKN041,0.00,VWS V14.01,2013-05-12 10:02:00,
2013-05-12 05:07:00,34.2,10.6,29.91,WNW,300,9.6,12.8,37,0.00,,BKN041,0.00,VWS V14.01,2013-05-12 10:07:00,
2013-05-12 05:13:00,34.0,10.5,29.91,NW,325,10.1,11.9,37,0.00,,BKN041,0.00,VWS V14.01,2013-05-12 10:13:00,
2013-05-12 05:18:00,34.0,11.1,29.91,North,3,5.4,10.5,38,0.00,,BKN041,0.00,VWS V14.01,2013-05-12 10:18:00,
2013-05-12 05:23:00,34.0,10.5,29.91,NW,318,5.4,11.0,37,0.00,,BKN041,0.00,VWS V14.01,2013-05-12 10:23:00,
2013-05-12 05:28:00,34.0,10.5,29.91,NNW,330,6.3,9.2,37,0.00,,BKN041,0.00,VWS V14.01,2013-05-12 10:28:00,
2013-05-12 05:34:00,34.0,9.9,29.91,NW,324,11.0,11.0,36,0.00,,BKN041,0.00,VWS V14.01,2013-05-12 10:34:00,
2013-05-12 05:40:00,34.0,9.2,29.91,NW,316,13.2,13.2,35,0.00,,BKN041,0.00,VWS V14.01,2013-05-12 10:40:00,
2013-05-12 05:45:00,34.2,9.4,29.91,NW,321,10.5,11.0,35,0.00,,BKN041,0.00,VWS V14.01,2013-05-12 10:45:00,
2013-05-12 05:51:00,34.2,9.4,29.91,NNW,348,6.3,10.1,35,0.00,,BKN041,0.00,VWS V14.01,2013-05-12 10:51:00,
2013-05-12 05:56:00,34.2,10.0,29.91,NNW,333,10.5,14.5,36,0.00,,BKN041,0.00,VWS V14.01,2013-05-12 10:56:00,
2013-05-12 06:02:00,34.0,9.9,29.91,NW,317,8.3,11.0,36,0.00,,SCT039,0.00,VWS V14.01,2013-05-12 11:02:00,
2013-05-12 06:07:00,34.0,9.9,29.91,North,350,7.6,9.2,36,0.00,,SCT039,0.00,VWS V14.01,2013-05-12 11:07:00,
2013-05-12 06:12:00,34.0,9.9,29.91,North,2,8.7,12.3,36,0.00,,SCT039,0.00,VWS V14.01,2013-05-12 11:12:00,
2013-05-12 06:18:00,34.2,10.0,29.91,NNW,343,10.1,10.1,36,0.00,,SCT039,0.00,VWS V14.01,2013-05-12 11:18:00,
2013-05-12 06:24:00,34.3,9.5,29.91,NNW,334,13.2,13.2,35,0.00,,SCT039,0.00,VWS V14.01,2013-05-12 11:24:00,
2013-05-12 06:30:00,34.3,9.5,29.91,NW,307,4.9,7.6,35,0.00,,SCT039,0.00,VWS V14.01,2013-05-12 11:30:00,
2013-05-12 06:35:00,34.3,10.8,29.91,NNW,333,8.3,10.1,37,0.00,,SCT039,0.00,VWS V14.01,2013-05-12 11:35:00,
2013-05-12 06:40:00,34.5,10.3,29.91,NW,326,5.8,6.3,36,0.00,,SCT039,0.00,VWS V14.01,2013-05-12 11:40:00,
2013-05-12 06:45:00,34.7,10.5,29.91,NNW,343,5.8,8.7,36,0.00,,SCT039,0.00,VWS V14.01,2013-05-12 11:45:00,
2013-05-12 06:51:00,34.9,10.6,29.91,NW,318,5.8,8.3,36,0.00,,SCT039,0.00,VWS V14.01,2013-05-12 11:51:00,
2013-05-12 06:56:00,35.1,10.2,29.91,NNW,334,4.5,8.7,35,0.00,,SCT039,0.00,VWS V14.01,2013-05-12 11:56:00,
2013-05-12 07:01:00,35.2,10.3,29.91,WNW,296,8.7,11.0,35,0.00,,BKN037,0.00,VWS V14.01,2013-05-12 12:01:00,
2013-05-12 07:06:00,35.4,10.5,29.91,North,357,5.4,8.7,35,0.00,,BKN037,0.00,VWS V14.01,2013-05-12 12:06:00,
2013-05-12 07:12:00,35.6,10.0,29.91,NNW,341,10.5,12.3,34,0.00,,BKN037,0.00,VWS V14.01,2013-05-12 12:12:00,
2013-05-12 07:17:00,35.6,10.0,29.91,NNW,336,14.1,14.1,34,0.00,,BKN037,0.00,VWS V14.01,2013-05-12 12:17:00,
2013-05-12 07:22:00,35.8,10.2,29.91,NNE,12,8.7,10.5,34,0.00,,BKN037,0.00,VWS V14.01,2013-05-12 12:22:00,
2013-05-12 07:27:00,36.0,10.3,29.91,North,353,8.3,13.2,34,0.00,,BKN037,0.00,VWS V14.01,2013-05-12 12:27:00,
2013-05-12 07:33:00,36.1,9.8,29.91,NNW,328,9.2,15.4,33,0.00,,BKN037,0.00,VWS V14.01,2013-05-12 12:33:00,
2013-05-12 07:38:00,36.1,9.8,29.91,NW,308,8.1,12.3,33,0.00,,BKN037,0.00,VWS V14.01,2013-05-12 12:38:00,
2013-05-12 07:44:00,36.1,9.8,29.93,NNW,336,15.4,15.4,33,0.00,,BKN037,0.00,VWS V14.01,2013-05-12 12:44:00,
2013-05-12 07:50:00,36.1,9.8,29.93,NW,305,9.2,12.8,33,0.00,,BKN037,0.00,VWS V14.01,2013-05-12 12:50:00,
2013-05-12 07:55:00,36.3,10.0,29.93,NNW,328,15.0,15.0,33,0.00,,BKN037,0.00,VWS V14.01,2013-05-12 12:55:00,
2013-05-12 08:01:00,36.7,10.3,29.93,NNW,340,9.6,15.4,33,0.00,,CLR,0.00,VWS V14.01,2013-05-12 13:01:00,
2013-05-12 08:06:00,36.7,10.3,29.93,NNW,345,6.3,15.0,33,0.00,,CLR,0.00,VWS V14.01,2013-05-12 13:06:00,
2013-05-12 08:12:00,36.9,9.8,29.93,NW,314,3.6,8.3,32,0.00,,CLR,0.00,VWS V14.01,2013-05-12 13:12:00,
2013-05-12 08:17:00,37.0,9.9,29.93,NNW,339,15.0,16.3,32,0.00,,CLR,0.00,VWS V14.01,2013-05-12 13:17:00,
2013-05-12 08:22:00,37.2,10.1,29.93,NNW,330,11.4,13.2,32,0.00,,CLR,0.00,VWS V14.01,2013-05-12 13:22:00,
2013-05-12 08:28:00,37.4,10.2,29.93,NNW,332,15.4,15.4,32,0.00,,CLR,0.00,VWS V14.01,2013-05-12 13:28:00,
2013-05-12 08:33:00,37.4,9.5,29.93,NW,312,8.3,13.2,31,0.00,,CLR,0.00,VWS V14.01,2013-05-12 13:33:00,
2013-05-12 08:38:00,37.6,10.4,29.93,NNW,341,11.0,13.2,32,0.00,,CLR,0.00,VWS V14.01,2013-05-12 13:38:00,
2013-05-12 08:43:00,37.8,9.9,29.93,North,0,11.9,13.6,31,0.00,,CLR,0.00,VWS V14.01,2013-05-12 13:43:00,
2013-05-12 08:48:00,37.9,10.0,29.93,WNW,284,6.3,8.7,31,0.00,,CLR,0.00,VWS V14.01,2013-05-12 13:48:00,
2013-05-12 08:54:00,37.4,9.5,29.93,WNW,303,6.3,10.5,31,0.00,,CLR,0.00,VWS V14.01,2013-05-12 13:54:00,
2013-05-12 08:59:00,37.2,9.4,29.93,NW,326,12.3,15.9,31,0.00,,CLR,0.00,VWS V14.01,2013-05-12 13:59:00,
2013-05-12 09:04:00,37.2,9.4,29.93,NW,308,8.7,11.4,31,0.00,,CLR,0.00,VWS V14.01,2013-05-12 14:04:00,
2013-05-12 09:09:00,38.1,10.2,29.93,NNE,14,8.3,15.0,31,0.00,,CLR,0.00,VWS V14.01,2013-05-12 14:09:00,
2013-05-12 09:15:00,38.7,10.6,29.93,NNW,345,10.1,10.1,31,0.00,,CLR,0.00,VWS V14.01,2013-05-12 14:15:00,
2013-05-12 09:21:00,38.8,10.1,29.93,NNW,331,14.1,15.4,30,0.00,,CLR,0.00,VWS V14.01,2013-05-12 14:21:00,
2013-05-12 09:26:00,38.5,9.8,29.93,North,6,8.3,13.6,30,0.00,,CLR,0.00,VWS V14.01,2013-05-12 14:26:00,
2013-05-12 09:32:00,38.7,10.6,29.93,NW,315,11.0,11.9,31,0.00,,CLR,0.00,VWS V14.01,2013-05-12 14:32:00,
2013-05-12 09:37:00,39.4,10.5,29.93,NW,322,8.7,12.8,30,0.00,,CLR,0.00,VWS V14.01,2013-05-12 14:37:00,
2013-05-12 09:43:00,39.4,10.5,29.93,NNW,330,10.5,10.5,30,0.00,,CLR,0.00,VWS V14.01,2013-05-12 14:43:00,
2013-05-12 09:48:00,39.4,10.5,29.93,NW,308,6.3,8.7,30,0.00,,CLR,0.00,VWS V14.01,2013-05-12 14:48:00,
2013-05-12 09:53:00,39.7,10.9,29.93,North,353,13.2,13.2,30,0.00,,CLR,0.00,VWS V14.01,2013-05-12 14:53:00,
2013-05-12 09:59:00,39.7,10.9,29.93,NNW,332,13.6,16.8,30,0.00,,CLR,0.00,VWS V14.01,2013-05-12 14:59:00,
2013-05-12 10:04:00,40.5,11.5,29.93,NW,306,8.1,8.1,30,0.00,,BKN032,0.00,VWS V14.01,2013-05-12 15:04:00,
2013-05-12 10:10:00,40.5,10.7,29.93,NW,317,10.1,17.4,29,0.00,,BKN032,0.00,VWS V14.01,2013-05-12 15:10:00,
2013-05-12 10:15:00,40.3,11.3,29.93,NW,313,10.1,13.2,30,0.00,,BKN032,0.00,VWS V14.01,2013-05-12 15:15:00,
2013-05-12 10:21:00,40.6,10.9,29.93,NNW,339,14.5,14.5,29,0.00,,BKN032,0.00,VWS V14.01,2013-05-12 15:21:00,
2013-05-12 10:26:00,41.0,11.2,29.93,NNW,329,18.3,18.3,29,0.00,,BKN032,0.00,VWS V14.01,2013-05-12 15:26:00,
2013-05-12 10:31:00,41.2,11.4,29.93,North,4,15.0,19.7,29,0.00,,BKN032,0.00,VWS V14.01,2013-05-12 15:31:00,
2013-05-12 10:36:00,41.0,11.2,29.93,NNW,331,12.8,14.1,29,0.00,,BKN032,0.00,VWS V14.01,2013-05-12 15:36:00,
2013-05-12 10:42:00,40.6,10.9,29.93,NNW,338,12.3,12.8,29,0.00,,BKN032,0.00,VWS V14.01,2013-05-12 15:42:00,
2013-05-12 10:47:00,40.6,10.9,29.93,North,2,15.0,15.4,29,0.00,,BKN032,0.00,VWS V14.01,2013-05-12 15:47:00,
2013-05-12 10:52:00,40.6,10.9,29.93,NW,323,3.6,8.7,29,0.00,,BKN032,0.00,VWS V14.01,2013-05-12 15:52:00,
2013-05-12 10:57:00,41.2,11.4,29.93,NNW,341,7.6,12.3,29,0.00,,BKN032,0.00,VWS V14.01,2013-05-12 15:57:00,
2013-05-12 11:03:00,41.4,11.5,29.93,NW,324,13.2,16.3,29,0.00,,OVC034,0.00,VWS V14.01,2013-05-12 16:03:00,
2013-05-12 11:08:00,40.6,10.9,29.93,NNW,333,9.2,10.5,29,0.00,,OVC034,0.00,VWS V14.01,2013-05-12 16:08:00,
2013-05-12 11:13:00,41.0,11.2,29.93,WNW,302,15.0,17.9,29,0.00,,OVC034,0.00,VWS V14.01,2013-05-12 16:13:00,
2013-05-12 11:18:00,40.8,11.0,29.96,North,4,14.5,14.5,29,0.00,,OVC034,0.00,VWS V14.01,2013-05-12 16:18:00,
2013-05-12 11:24:00,41.2,10.6,29.96,NNW,341,11.0,17.4,28,0.00,,OVC034,0.00,VWS V14.01,2013-05-12 16:24:00,
2013-05-12 11:30:00,41.2,11.4,29.96,NW,325,8.3,13.2,29,0.00,,OVC034,0.00,VWS V14.01,2013-05-12 16:30:00,
2013-05-12 11:35:00,41.7,11.8,29.96,North,357,8.1,9.6,29,0.00,,OVC034,0.00,VWS V14.01,2013-05-12 16:35:00,
2013-05-12 11:41:00,42.3,12.3,29.96,North,357,10.5,15.0,29,0.00,,OVC034,0.00,VWS V14.01,2013-05-12 16:41:00,
2013-05-12 11:46:00,42.8,12.8,29.93,WNW,288,4.9,8.1,29,0.00,,OVC034,0.00,VWS V14.01,2013-05-12 16:46:00,
2013-05-12 11:52:00,42.6,12.6,29.93,NW,321,10.1,14.5,29,0.00,,OVC034,0.00,VWS V14.01,2013-05-12 16:52:00,
2013-05-12 11:57:00,42.3,11.5,29.93,NW,313,8.7,8.7,28,0.00,,OVC034,0.00,VWS V14.01,2013-05-12 16:57:00,
2013-05-12 12:03:00,42.1,12.1,29.93,NW,304,11.0,13.2,29,0.00,,OVC042,0.00,VWS V14.01,2013-05-12 17:03:00,
2013-05-12 12:08:00,42.6,11.8,29.93,North,353,19.7,19.7,28,0.00,,OVC042,0.00,VWS V14.01,2013-05-12 17:08:00,
2013-05-12 12:13:00,43.0,12.1,29.93,North,357,9.6,12.8,28,0.00,,OVC042,0.00,VWS V14.01,2013-05-12 17:13:00,
2013-05-12 12:19:00,43.3,12.4,29.93,WNW,298,10.1,12.3,28,0.00,,OVC042,0.00,VWS V14.01,2013-05-12 17:19:00,
2013-05-12 12:24:00,43.5,12.6,29.93,NW,311,8.3,10.5,28,0.00,,OVC042,0.00,VWS V14.01,2013-05-12 17:24:00,
2013-05-12 12:30:00,43.5,12.6,29.93,NW,305,5.4,8.1,28,0.00,,OVC042,0.00,VWS V14.01,2013-05-12 17:30:00,
2013-05-12 12:35:00,43.9,12.9,29.93,NNW,348,5.4,14.5,28,0.00,,OVC042,0.00,VWS V14.01,2013-05-12 17:35:00,
2013-05-12 12:40:00,44.2,13.2,29.93,NW,324,8.1,12.8,28,0.00,,OVC042,0.00,VWS V14.01,2013-05-12 17:40:00,
2013-05-12 12:45:00,44.4,13.4,29.93,North,5,15.0,19.7,28,0.00,,OVC042,0.00,VWS V14.01,2013-05-12 17:45:00,
2013-05-12 12:50:00,44.4,13.4,29.93,North,357,8.7,10.5,28,0.00,,OVC042,0.00,VWS V14.01,2013-05-12 17:50:00,
2013-05-12 12:55:00,44.8,12.9,29.93,WNW,299,8.7,10.1,27,0.00,,OVC042,0.00,VWS V14.01,2013-05-12 17:55:00,
2013-05-12 13:01:00,45.1,11.4,29.93,North,357,15.4,21.5,25,0.00,,BKN044,0.00,VWS V14.01,2013-05-12 18:01:00,
2013-05-12 13:06:00,45.7,13.6,29.93,NW,322,6.3,10.5,27,0.00,,BKN044,0.00,VWS V14.01,2013-05-12 18:06:00,
2013-05-12 13:11:00,45.5,13.5,29.93,WNW,301,7.6,12.3,27,0.00,,BKN044,0.00,VWS V14.01,2013-05-12 18:11:00,
2013-05-12 13:16:00,45.5,13.5,29.93,WNW,298,6.3,10.5,27,0.00,,BKN044,0.00,VWS V14.01,2013-05-12 18:16:00,
2013-05-12 13:22:00,45.9,12.0,29.93,NW,322,11.0,15.0,25,0.00,,BKN044,0.00,VWS V14.01,2013-05-12 18:22:00,
2013-05-12 13:27:00,46.4,11.6,29.93,North,353,8.7,15.4,24,0.00,,BKN044,0.00,VWS V14.01,2013-05-12 18:27:00,
2013-05-12 13:33:00,46.4,11.6,29.93,WNW,298,7.6,10.5,24,0.00,,BKN044,0.00,VWS V14.01,2013-05-12 18:33:00,
2013-05-12 13:38:00,46.2,12.4,29.93,WNW,292,4.0,7.6,25,0.00,,BKN044,0.00,VWS V14.01,2013-05-12 18:38:00,
2013-05-12 13:43:00,46.6,11.7,29.93,West,261,3.6,4.9,24,0.00,,BKN044,0.00,VWS V14.01,2013-05-12 18:43:00,
2013-05-12 13:48:00,47.3,15.0,29.93,NW,306,6.3,6.7,27,0.00,,BKN044,0.00,VWS V14.01,2013-05-12 18:48:00,
2013-05-12 13:53:00,47.3,12.4,29.93,NW,310,8.1,9.6,24,0.00,,BKN044,0.00,VWS V14.01,2013-05-12 18:53:00,
2013-05-12 13:58:00,47.8,12.8,29.93,WNW,299,10.5,11.0,24,0.00,,BKN044,0.00,VWS V14.01,2013-05-12 18:58:00,
2013-05-12 14:04:00,47.3,12.4,29.93,NNW,341,6.3,8.3,24,0.00,,BKN048,0.00,VWS V14.01,2013-05-12 19:04:00,
2013-05-12 14:09:00,47.5,12.5,29.93,SW,225,8.1,8.1,24,0.00,,BKN048,0.00,VWS V14.01,2013-05-12 19:09:00,
2013-05-12 14:14:00,47.5,12.5,29.93,NW,322,8.7,8.7,24,0.00,,BKN048,0.00,VWS V14.01,2013-05-12 19:14:00,
2013-05-12 14:19:00,47.7,12.7,29.93,NW,316,5.8,6.7,24,0.00,,BKN048,0.00,VWS V14.01,2013-05-12 19:19:00,
2013-05-12 14:25:00,47.8,12.8,29.93,NW,320,4.9,10.1,24,0.00,,BKN048,0.00,VWS V14.01,2013-05-12 19:25:00,
2013-05-12 14:30:00,48.0,11.0,29.91,NW,307,8.7,13.2,22,0.00,,BKN048,0.00,VWS V14.01,2013-05-12 19:30:00,
2013-05-12 14:36:00,48.2,10.1,29.91,WNW,288,2.7,6.3,21,0.00,,BKN048,0.00,VWS V14.01,2013-05-12 19:36:00,
2013-05-12 14:41:00,48.4,10.3,29.91,NNE,15,11.4,11.4,21,0.00,,BKN048,0.00,VWS V14.01,2013-05-12 19:41:00,
2013-05-12 14:47:00,48.4,10.3,29.91,NW,315,5.8,8.7,21,0.00,,BKN048,0.00,VWS V14.01,2013-05-12 19:47:00,
2013-05-12 14:52:00,48.6,10.4,29.91,North,10,8.1,8.7,21,0.00,,BKN048,0.00,VWS V14.01,2013-05-12 19:52:00,
2013-05-12 14:58:00,49.5,14.2,29.91,NNW,334,7.6,7.6,24,0.00,,BKN048,0.00,VWS V14.01,2013-05-12 19:58:00,
2013-05-12 15:04:00,49.8,11.5,29.91,WNW,296,6.3,8.7,21,0.00,,SCT055,0.00,VWS V14.01,2013-05-12 20:04:00,
2013-05-12 15:09:00,49.5,11.2,29.91,SW,232,9.6,9.6,21,0.00,,SCT055,0.00,VWS V14.01,2013-05-12 20:09:00,
2013-05-12 15:15:00,49.5,11.2,29.91,NW,306,6.7,6.7,21,0.00,,SCT055,0.00,VWS V14.01,2013-05-12 20:15:00,
2013-05-12 15:21:00,49.1,10.9,29.91,WNW,301,6.3,6.3,21,0.00,,SCT055,0.00,VWS V14.01,2013-05-12 20:21:00,
2013-05-12 15:26:00,49.8,11.5,29.91,NNW,329,10.5,15.0,21,0.00,,SCT055,0.00,VWS V14.01,2013-05-12 20:26:00,
2013-05-12 15:32:00,49.8,11.5,29.91,West,280,4.0,5.4,21,0.00,,SCT055,0.00,VWS V14.01,2013-05-12 20:32:00,
2013-05-12 15:37:00,50.2,11.8,29.91,WNW,292,2.7,3.6,21,0.00,,SCT055,0.00,VWS V14.01,2013-05-12 20:37:00,
2013-05-12 15:42:00,51.3,12.7,29.91,North,353,8.1,12.3,21,0.00,,SCT055,0.00,VWS V14.01,2013-05-12 20:42:00,
2013-05-12 15:47:00,51.1,12.5,29.91,NW,315,6.3,6.3,21,0.00,,SCT055,0.00,VWS V14.01,2013-05-12 20:47:00,
2013-05-12 15:52:00,50.4,11.9,29.91,North,350,3.1,10.5,21,0.00,,SCT055,0.00,VWS V14.01,2013-05-12 20:52:00,
2013-05-12 15:57:00,50.9,12.4,29.91,NNW,343,8.7,12.8,21,0.00,,SCT055,0.00,VWS V14.01,2013-05-12 20:57:00,
2013-05-12 16:03:00,50.9,12.4,29.91,NNW,331,10.1,11.9,21,0.00,,BKN060,0.00,VWS V14.01,2013-05-12 21:03:00,
2013-05-12 16:08:00,50.2,11.8,29.91,North,4,7.6,11.0,21,0.00,,BKN060,0.00,VWS V14.01,2013-05-12 21:08:00,
2013-05-12 16:14:00,50.4,11.9,29.91,NNW,342,8.3,10.5,21,0.00,,BKN060,0.00,VWS V14.01,2013-05-12 21:14:00,
2013-05-12 16:19:00,50.9,12.4,29.91,NW,319,5.4,8.7,21,0.00,,BKN060,0.00,VWS V14.01,2013-05-12 21:19:00,
2013-05-12 16:24:00,51.3,12.7,29.91,NNW,341,13.2,13.2,21,0.00,,BKN060,0.00,VWS V14.01,2013-05-12 21:24:00,
2013-05-12 16:29:00,50.5,12.1,29.91,NNW,337,13.2,13.2,21,0.00,,BKN060,0.00,VWS V14.01,2013-05-12 21:29:00,
2013-05-12 16:34:00,49.8,11.5,29.91,NNW,337,7.6,8.1,21,0.00,,BKN060,0.00,VWS V14.01,2013-05-12 21:34:00,
2013-05-12 16:40:00,50.2,11.8,29.91,NNE,15,8.7,8.7,21,0.00,,BKN060,0.00,VWS V14.01,2013-05-12 21:40:00,
2013-05-12 16:46:00,50.9,12.4,29.91,WNW,291,9.6,10.5,21,0.00,,BKN060,0.00,VWS V14.01,2013-05-12 21:46:00,
2013-05-12 16:52:00,50.7,12.2,29.91,NNW,333,10.5,11.0,21,0.00,,BKN060,0.00,VWS V14.01,2013-05-12 21:52:00,
2013-05-12 16:57:00,51.3,12.7,29.91,NW,321,10.5,10.5,21,0.00,,BKN060,0.00,VWS V14.01,2013-05-12 21:57:00,
2013-05-12 17:03:00,51.1,12.5,29.91,NNW,348,8.1,10.5,21,0.00,,SCT070,0.00,VWS V14.01,2013-05-12 22:03:00,
2013-05-12 17:08:00,50.7,12.2,29.91,NW,320,8.3,12.3,21,0.00,,SCT070,0.00,VWS V14.01,2013-05-12 22:08:00,
2013-05-12 17:14:00,50.9,12.4,29.91,North,350,5.4,7.6,21,0.00,,SCT070,0.00,VWS V14.01,2013-05-12 22:14:00,
2013-05-12 17:19:00,51.8,13.1,29.91,NNE,19,10.1,15.0,21,0.00,,SCT070,0.00,VWS V14.01,2013-05-12 22:19:00,
2013-05-12 17:25:00,52.2,13.4,29.91,NNW,331,5.4,11.0,21,0.00,,SCT070,0.00,VWS V14.01,2013-05-12 22:25:00,
2013-05-12 17:30:00,52.0,13.3,29.91,NNE,14,7.6,8.3,21,0.00,,SCT070,0.00,VWS V14.01,2013-05-12 22:30:00,
2013-05-12 17:35:00,52.0,13.3,29.91,NNW,336,8.1,11.0,21,0.00,,SCT070,0.00,VWS V14.01,2013-05-12 22:35:00,
2013-05-12 17:41:00,52.2,13.4,29.91,NNW,328,6.3,8.1,21,0.00,,SCT070,0.00,VWS V14.01,2013-05-12 22:41:00,
2013-05-12 17:46:00,52.0,13.3,29.91,North,357,10.5,11.0,21,0.00,,SCT070,0.00,VWS V14.01,2013-05-12 22:46:00,
2013-05-12 17:51:00,52.2,13.4,29.91,NW,307,8.7,12.8,21,0.00,,SCT070,0.00,VWS V14.01,2013-05-12 22:51:00,
2013-05-12 17:56:00,52.0,13.3,29.91,North,10,10.5,13.6,21,0.00,,SCT070,0.00,VWS V14.01,2013-05-12 22:56:00,
2013-05-12 18:02:00,52.5,13.7,29.91,North,0,8.7,10.1,21,0.00,,OVC080,0.00,VWS V14.01,2013-05-12 23:02:00,
2013-05-12 18:07:00,52.5,13.7,29.91,NW,319,6.3,9.6,21,0.00,,OVC080,0.00,VWS V14.01,2013-05-12 23:07:00,
2013-05-12 18:13:00,51.6,13.0,29.91,NNW,331,8.7,10.5,21,0.00,,OVC080,0.00,VWS V14.01,2013-05-12 23:13:00,
2013-05-12 18:18:00,51.6,13.0,29.91,NW,308,10.5,10.5,21,0.00,,OVC080,0.00,VWS V14.01,2013-05-12 23:18:00,
2013-05-12 18:23:00,51.4,12.8,29.91,North,11,11.0,11.0,21,0.00,,OVC080,0.00,VWS V14.01,2013-05-12 23:23:00,
2013-05-12 18:28:00,51.4,12.8,29.91,NW,325,6.3,10.5,21,0.00,,OVC080,0.00,VWS V14.01,2013-05-12 23:28:00,
2013-05-12 18:33:00,51.4,12.8,29.91,NNW,346,6.3,8.3,21,0.00,,OVC080,0.00,VWS V14.01,2013-05-12 23:33:00,
2013-05-12 18:39:00,51.4,12.8,29.91,North,357,8.7,8.7,21,0.00,,OVC080,0.00,VWS V14.01,2013-05-12 23:39:00,
2013-05-12 18:44:00,51.3,12.7,29.91,NNW,335,8.3,13.2,21,0.00,,OVC080,0.00,VWS V14.01,2013-05-12 23:44:00,
2013-05-12 18:49:00,51.1,12.5,29.91,NNE,19,12.8,15.4,21,0.00,,OVC080,0.00,VWS V14.01,2013-05-12 23:49:00,
2013-05-12 18:54:00,51.1,12.5,29.91,NNW,333,5.8,8.7,21,0.00,,OVC080,0.00,VWS V14.01,2013-05-12 23:54:00,
2013-05-12 18:59:00,50.9,12.4,29.91,North,357,7.2,8.7,21,0.00,,OVC080,0.00,VWS V14.01,2013-05-12 23:59:00,
2013-05-12 19:05:00,50.5,12.1,29.91,North,3,8.1,12.3,21,0.00,,BKN085,0.00,VWS V14.01,2013-05-13 00:05:00,
2013-05-12 19:10:00,50.4,11.9,29.91,North,353,7.6,8.3,21,0.00,,BKN085,0.00,VWS V14.01,2013-05-13 00:10:00,
2013-05-12 19:16:00,50.0,11.6,29.91,North,353,5.4,7.6,21,0.00,,BKN085,0.00,VWS V14.01,2013-05-13 00:16:00,
2013-05-12 19:21:00,49.8,11.5,29.91,North,353,6.3,8.1,21,0.00,,BKN085,0.00,VWS V14.01,2013-05-13 00:21:00,
2013-05-12 19:27:00,49.6,11.3,29.91,North,8,8.1,15.4,21,0.00,,BKN085,0.00,VWS V14.01,2013-05-13 00:27:00,
2013-05-12 19:32:00,49.6,11.3,29.91,WNW,291,8.7,8.7,21,0.00,,BKN085,0.00,VWS V14.01,2013-05-13 00:32:00,
2013-05-12 19:37:00,49.5,11.2,29.91,NW,319,4.0,8.7,21,0.00,,BKN085,0.00,VWS V14.01,2013-05-13 00:37:00,
2013-05-12 19:42:00,49.1,10.9,29.91,North,350,3.6,7.6,21,0.00,,BKN085,0.00,VWS V14.01,2013-05-13 00:42:00,
2013-05-12 19:47:00,49.1,10.9,29.91,NNW,346,5.4,7.6,21,0.00,,BKN085,0.00,VWS V14.01,2013-05-13 00:47:00,
2013-05-12 19:52:00,48.9,10.7,29.91,NNW,332,6.3,7.6,21,0.00,,BKN085,0.00,VWS V14.01,2013-05-13 00:52:00,
2013-05-12 19:58:00,48.7,10.6,29.91,NW,316,5.8,7.6,21,0.00,,BKN085,0.00,VWS V14.01,2013-05-13 00:58:00,
2013-05-12 20:03:00,48.6,10.4,29.91,NW,325,4.0,5.4,21,0.00,,BKN090,0.00,VWS V14.01,2013-05-13 01:03:00,
2013-05-12 20:08:00,48.2,10.1,29.91,NNW,328,5.4,5.8,21,0.00,,BKN090,0.00,VWS V14.01,2013-05-13 01:08:00,
2013-05-12 20:13:00,47.8,10.9,29.91,NNW,348,4.9,5.8,22,0.00,,BKN090,0.00,VWS V14.01,2013-05-13 01:13:00,
2013-05-12 20:19:00,47.5,10.6,29.91,NW,321,6.3,6.3,22,0.00,,BKN090,0.00,VWS V14.01,2013-05-13 01:19:00,
2013-05-12 20:24:00,47.3,10.4,29.91,NW,322,6.3,6.3,22,0.00,,BKN090,0.00,VWS V14.01,2013-05-13 01:24:00,
2013-05-12 20:29:00,47.1,10.2,29.91,NNW,335,5.8,5.8,22,0.00,,BKN090,0.00,VWS V14.01,2013-05-13 01:29:00,
2013-05-12 20:34:00,46.9,10.1,29.91,WNW,291,4.9,6.3,22,0.00,,BKN090,0.00,VWS V14.01,2013-05-13 01:34:00,
2013-05-12 20:40:00,46.6,9.8,29.91,NW,316,4.9,5.4,22,0.00,,BKN090,0.00,VWS V14.01,2013-05-13 01:40:00,
2013-05-12 20:45:00,46.4,9.6,29.91,NW,324,4.9,8.1,22,0.00,,BKN090,0.00,VWS V14.01,2013-05-13 01:45:00,
2013-05-12 20:51:00,46.4,9.6,29.91,NNW,339,7.6,8.3,22,0.00,,BKN090,0.00,VWS V14.01,2013-05-13 01:51:00,
2013-05-12 20:56:00,46.4,9.6,29.91,NNW,331,3.6,5.4,22,0.00,,BKN090,0.00,VWS V14.01,2013-05-13 01:56:00,
2013-05-12 21:02:00,46.2,9.5,29.91,NW,318,4.9,5.4,22,0.00,,SCT085,0.00,VWS V14.01,2013-05-13 02:02:00,
2013-05-12 21:07:00,46.0,9.3,29.91,North,353,6.3,6.3,22,0.00,,SCT085,0.00,VWS V14.01,2013-05-13 02:07:00,
2013-05-12 21:12:00,45.9,9.2,29.91,NW,318,3.6,5.8,22,0.00,,SCT085,0.00,VWS V14.01,2013-05-13 02:12:00,
2013-05-12 21:17:00,45.7,9.0,29.91,NNW,329,5.8,5.8,22,0.00,,SCT085,0.00,VWS V14.01,2013-05-13 02:17:00,
2013-05-12 21:23:00,45.3,8.7,29.91,NW,316,3.6,4.9,22,0.00,,SCT085,0.00,VWS V14.01,2013-05-13 02:23:00,
2013-05-12 21:28:00,45.1,8.6,29.91,NW,313,3.1,4.0,22,0.00,,SCT085,0.00,VWS V14.01,2013-05-13 02:28:00,
2013-05-12 21:33:00,44.8,8.3,29.91,NNW,332,3.1,3.1,22,0.00,,SCT085,0.00,VWS V14.01,2013-05-13 02:33:00,
2013-05-12 21:39:00,44.6,8.1,29.91,North,4,4.9,4.9,22,0.00,,SCT085,0.00,VWS V14.01,2013-05-13 02:39:00,
2013-05-12 21:45:00,44.4,8.9,29.93,North,353,4.9,7.6,23,0.00,,SCT085,0.00,VWS V14.01,2013-05-13 02:45:00,
2013-05-12 21:51:00,44.6,8.1,29.93,North,11,3.6,3.6,22,0.00,,SCT085,0.00,VWS V14.01,2013-05-13 02:51:00,
2013-05-12 21:56:00,44.6,8.1,29.93,North,350,2.7,4.0,22,0.00,,SCT085,0.00,VWS V14.01,2013-05-13 02:56:00,
2013-05-12 22:01:00,44.4,8.9,29.93,NNE,13,5.4,7.6,23,0.00,,OVC090,0.00,VWS V14.01,2013-05-13 03:01:00,
2013-05-12 22:07:00,44.4,8.9,29.93,North,5,4.0,4.0,23,0.00,,OVC090,0.00,VWS V14.01,2013-05-13 03:07:00,
2013-05-12 22:12:00,44.1,10.5,29.93,North,357,3.6,4.0,25,0.00,,OVC090,0.00,VWS V14.01,2013-05-13 03:12:00,
2013-05-12 22:18:00,43.5,12.6,29.93,NE,47,0.0,0.0,28,0.00,,OVC090,0.00,VWS V14.01,2013-05-13 03:18:00,
2013-05-12 22:23:00,42.8,12.0,29.93,East,96,5.4,5.4,28,0.00,,OVC090,0.00,VWS V14.01,2013-05-13 03:23:00,
2013-05-12 22:29:00,42.1,12.1,29.93,East,79,0.0,0.0,29,0.00,,OVC090,0.00,VWS V14.01,2013-05-13 03:29:00,
2013-05-12 22:34:00,41.4,11.5,29.96,ENE,72,0.0,0.0,29,0.00,,OVC090,0.00,VWS V14.01,2013-05-13 03:34:00,
2013-05-12 22:40:00,40.6,11.6,29.96,ENE,76,3.1,3.6,30,0.00,,OVC090,0.00,VWS V14.01,2013-05-13 03:40:00,
2013-05-12 22:46:00,40.1,11.9,29.96,ENE,69,0.0,2.7,31,0.00,,OVC090,0.00,VWS V14.01,2013-05-13 03:46:00,
2013-05-12 22:51:00,39.6,11.4,29.96,ESE,108,0.0,2.2,31,0.00,,OVC090,0.00,VWS V14.01,2013-05-13 03:51:00,
2013-05-12 22:57:00,38.8,11.5,29.96,ESE,109,2.7,7.6,32,0.00,,OVC090,0.00,VWS V14.01,2013-05-13 03:57:00,
2013-05-12 23:01:00,38.7,12.1,29.96,ENE,76,6.3,6.3,33,0.00,,OVC090,0.00,VWS V14.01,2013-05-13 04:01:00,
2013-05-12 23:02:00,38.5,11.9,29.96,ENE,72,8.3,8.3,33,0.00,,OVC090,0.00,VWS V14.01,2013-05-13 04:02:00,
2013-05-12 23:03:00,38.3,11.7,29.96,ESE,105,3.1,8.3,33,0.00,,OVC090,0.00,VWS V14.01,2013-05-13 04:03:00,
2013-05-12 23:04:00,38.3,11.7,29.96,East,79,3.1,4.0,33,0.00,,OVC090,0.00,VWS V14.01,2013-05-13 04:04:00,
2013-05-12 23:08:00,37.9,12.1,29.96,East,80,2.7,6.3,34,0.00,,OVC090,0.00,VWS V14.01,2013-05-13 04:08:00,
2013-05-12 23:14:00,37.6,12.4,29.96,ESE,113,3.1,3.6,35,0.00,,OVC090,0.00,VWS V14.01,2013-05-13 04:14:00,
2013-05-12 23:19:00,37.2,13.4,29.96,East,79,0.0,0.0,37,0.00,,OVC090,0.00,VWS V14.01,2013-05-13 04:19:00,
2013-05-12 23:25:00,37.0,13.2,29.96,East,82,5.8,6.3,37,0.00,,OVC090,0.00,VWS V14.01,2013-05-13 04:25:00,
2013-05-12 23:31:00,36.7,14.1,29.96,ENE,57,0.0,5.4,39,0.00,,OVC090,0.00,VWS V14.01,2013-05-13 04:31:00,
2013-05-12 23:36:00,36.5,13.9,29.96,ESE,113,4.9,5.4,39,0.00,,OVC090,0.00,VWS V14.01,2013-05-13 04:36:00,
2013-05-12 23:42:00,36.1,13.6,29.96,East,87,2.7,6.3,39,0.00,,OVC090,0.00,VWS V14.01,2013-05-13 04:42:00,
2013-05-12 23:47:00,36.0,14.0,29.96,ESE,103,2.2,4.0,40,0.00,,OVC090,0.00,VWS V14.01,2013-05-13 04:47:00,
2013-05-12 23:53:00,35.8,13.8,29.96,ENE,70,0.0,0.0,40,0.00,,OVC090,0.00,VWS V14.01,2013-05-13 04:53:00,
2013-05-12 23:58:00,35.6,13.7,29.96,ESE,107,3.6,3.6,40,0.00,,OVC090,0.00,VWS V14.01,2013-05-13 04:58:00,